Time;durP1;ratioP1;P1;durP2;ratioP2;P2;SDS_P1;SDS_P2;PMS_P1;PMS_P2;Temp;Humidity;BMP_temperature;BMP_pressure;BME280_temperature;BME280_humidity;BME280_pressure;Samples;Min_cycle;Max_cycle;Signal;HPM_P1;HPM_P2
2022/01/09 00:00:19;;;;;;;16.65;8.75;;;;;;;;;;5073682;28;20094;-75
2022/01/09 00:02:45;;;;;;;15.70;7.50;;;;;;;;;;5073499;28;20504;-73
2022/01/09 00:05:11;;;;;;;15.45;9.07;;;;;;;;;;5073518;28;20505;-73
2022/01/09 00:07:38;;;;;;;12.93;6.90;;;;;;;;;;5073700;28;20028;-74
2022/01/09 00:10:05;;;;;;;13.13;6.30;;;;;;;;;;5055616;28;20112;-74
2022/01/09 00:12:31;;;;;;;11.95;6.00;;;;;;;;;;5055586;28;20107;-75
2022/01/09 00:14:56;;;;;;;9.20;5.25;;;;;;;;;;5073248;28;20497;-75
2022/01/09 00:17:22;;;;;;;11.20;5.55;;;;;;;;;;5072944;28;20032;-74
2022/01/09 00:19:48;;;;;;;8.95;4.90;;;;;;;;;;5073538;28;20116;-75
2022/01/09 00:22:18;;;;;;;12.38;5.35;;;;;;;;;;5073311;28;20366;-74
2022/01/09 00:24:44;;;;;;;11.20;4.85;;;;;;;;;;5073057;28;20028;-75
2022/01/09 00:27:10;;;;;;;6.72;4.13;;;;;;;;;;5073182;28;20425;-74
2022/01/09 00:29:36;;;;;;;13.55;4.68;;;;;;;;;;5073075;28;20024;-75
2022/01/09 00:32:02;;;;;;;9.30;4.65;;;;;;;;;;5072885;28;20214;-75
2022/01/09 00:34:28;;;;;;;9.98;4.13;;;;;;;;;;5054742;28;20024;-74
2022/01/09 00:36:53;;;;;;;6.65;4.22;;;;;;;;;;5055163;28;20067;-74
2022/01/09 00:39:20;;;;;;;9.23;4.10;;;;;;;;;;5068210;28;20028;-73
2022/01/09 00:41:46;;;;;;;8.32;4.07;;;;;;;;;;5072809;28;20028;-74
2022/01/09 00:44:11;;;;;;;11.95;5.57;;;;;;;;;;5072385;28;20496;-74
2022/01/09 00:46:37;;;;;;;7.90;4.13;;;;;;;;;;5072684;28;20366;-74
2022/01/09 00:49:04;;;;;;;12.20;3.97;;;;;;;;;;5073110;28;20078;-74
2022/01/09 00:51:31;;;;;;;9.68;3.70;;;;;;;;;;5072586;28;20119;-73
2022/01/09 00:53:57;;;;;;;9.13;4.47;;;;;;;;;;5054556;28;20025;-73
2022/01/09 00:56:23;;;;;;;10.20;3.53;;;;;;;;;;5072465;28;20486;-74
2022/01/09 00:58:49;;;;;;;10.18;4.32;;;;;;;;;;5072811;28;20104;-73
2022/01/09 01:01:15;;;;;;;7.28;4.05;;;;;;;;;;5072417;28;20032;-73
2022/01/09 01:03:41;;;;;;;19.05;5.40;;;;;;;;;;5054346;28;20028;-74
2022/01/09 01:06:07;;;;;;;9.25;4.68;;;;;;;;;;5072248;28;20029;-75
2022/01/09 01:08:33;;;;;;;11.05;4.90;;;;;;;;;;5054270;28;20034;-73
2022/01/09 01:10:59;;;;;;;15.38;5.70;;;;;;;;;;5072088;28;20024;-74
2022/01/09 01:13:25;;;;;;;10.38;5.82;;;;;;;;;;5054029;28;20075;-74
2022/01/09 01:15:51;;;;;;;10.35;6.00;;;;;;;;;;5072202;28;20025;-73
2022/01/09 01:18:17;;;;;;;15.50;6.75;;;;;;;;;;5054220;28;20068;-74
2022/01/09 01:20:43;;;;;;;10.68;6.13;;;;;;;;;;5072151;28;20043;-74
2022/01/09 01:23:09;;;;;;;13.80;6.13;;;;;;;;;;5071760;28;20130;-73
2022/01/09 01:25:36;;;;;;;12.93;7.07;;;;;;;;;;5071925;28;20032;-73
2022/01/09 01:28:02;;;;;;;10.98;6.55;;;;;;;;;;5071377;28;20036;-74
2022/01/09 01:30:28;;;;;;;18.95;9.45;;;;;;;;;;5071789;28;20033;-75
2022/01/09 01:32:54;;;;;;;9.80;5.78;;;;;;;;;;5071771;28;20124;-75
2022/01/09 01:35:20;;;;;;;11.98;6.35;;;;;;;;;;5071990;28;20028;-74
2022/01/09 01:37:46;;;;;;;11.73;6.47;;;;;;;;;;5072203;28;20025;-73
2022/01/09 01:40:14;;;;;;;10.45;5.50;;;;;;;;;;5054029;28;20029;-74
2022/01/09 01:42:41;;;;;;;12.80;5.93;;;;;;;;;;5071630;28;20029;-75
2022/01/09 01:45:07;;;;;;;14.82;6.32;;;;;;;;;;5053524;28;20135;-74
2022/01/09 01:47:33;;;;;;;12.82;5.35;;;;;;;;;;5053867;28;20169;-74
2022/01/09 01:49:59;;;;;;;10.38;5.03;;;;;;;;;;5071587;28;20025;-74
2022/01/09 01:52:35;;;;;;;11.80;6.35;;;;;;;;;;5053437;28;20404;-72
2022/01/09 01:55:00;;;;;;;10.32;5.90;;;;;;;;;;5071344;28;20021;-74
2022/01/09 01:57:27;;;;;;;10.45;5.47;;;;;;;;;;5053384;28;20077;-73
2022/01/09 01:59:55;;;;;;;12.40;5.78;;;;;;;;;;5071456;28;20040;-75
2022/01/09 02:02:22;;;;;;;12.45;5.75;;;;;;;;;;5071865;28;20036;-74
2022/01/09 02:04:48;;;;;;;9.80;5.45;;;;;;;;;;5054134;28;20056;-74
2022/01/09 02:07:14;;;;;;;11.02;6.03;;;;;;;;;;5054923;28;20095;-73
2022/01/09 02:09:40;;;;;;;10.85;5.78;;;;;;;;;;5073732;28;20082;-74
2022/01/09 02:12:06;;;;;;;11.70;5.13;;;;;;;;;;5057317;28;20036;-74
2022/01/09 02:14:36;;;;;;;11.02;5.28;;;;;;;;;;5058019;28;20044;-73
2022/01/09 02:17:02;;;;;;;9.60;4.80;;;;;;;;;;5055946;28;20051;-73
2022/01/09 02:19:28;;;;;;;9.73;4.72;;;;;;;;;;5074044;28;20534;-74
2022/01/09 02:21:56;;;;;;;9.98;4.72;;;;;;;;;;5073307;28;20067;-73
2022/01/09 02:24:23;;;;;;;10.57;4.68;;;;;;;;;;5072673;28;20032;-73
2022/01/09 02:26:50;;;;;;;11.55;4.85;;;;;;;;;;5072727;28;20041;-74
2022/01/09 02:29:16;;;;;;;10.63;6.10;;;;;;;;;;5072131;28;20024;-72
2022/01/09 02:31:42;;;;;;;6.43;4.10;;;;;;;;;;5070894;28;20085;-72
2022/01/09 02:34:08;;;;;;;8.98;4.10;;;;;;;;;;5052968;28;20025;-74
2022/01/09 02:36:34;;;;;;;9.27;4.40;;;;;;;;;;5071214;28;20028;-73
2022/01/09 02:39:00;;;;;;;9.52;4.40;;;;;;;;;;5067348;28;20486;-74
2022/01/09 02:41:26;;;;;;;10.05;4.35;;;;;;;;;;5067008;28;20032;-72
2022/01/09 02:43:52;;;;;;;5.47;3.50;;;;;;;;;;5074612;28;20024;-74
2022/01/09 02:49:08;;;;;;;9.35;3.58;;;;;;;;;;5075568;28;20133;-74
2022/01/09 02:51:39;;;;;;;10.18;4.30;;;;;;;;;;5074857;28;20033;-74
2022/01/09 02:56:51;;;;;;;6.97;3.40;;;;;;;;;;5061055;28;20107;-74
2022/01/09 02:59:17;;;;;;;7.10;4.05;;;;;;;;;;5057459;28;20020;-73
2022/01/09 03:01:43;;;;;;;8.07;4.05;;;;;;;;;;5057009;28;20028;-73
2022/01/09 03:04:09;;;;;;;6.30;3.95;;;;;;;;;;5074814;28;20474;-73
2022/01/09 03:06:35;;;;;;;12.10;5.50;;;;;;;;;;5058552;28;20477;-74
2022/01/09 03:09:03;;;;;;;5.05;3.42;;;;;;;;;;5074983;28;20111;-72
2022/01/09 03:11:31;;;;;;;5.40;3.17;;;;;;;;;;5056636;28;20501;-74
2022/01/09 03:13:57;;;;;;;6.65;4.63;;;;;;;;;;5074497;28;20016;-73
2022/01/09 03:16:23;;;;;;;5.82;3.80;;;;;;;;;;5074319;28;20021;-72
2022/01/09 03:18:49;;;;;;;8.85;4.20;;;;;;;;;;5056478;28;20035;-73
2022/01/09 03:21:14;;;;;;;11.38;4.18;;;;;;;;;;5074358;28;20174;-73
2022/01/09 03:23:40;;;;;;;11.90;4.28;;;;;;;;;;5074213;28;20033;-73
2022/01/09 03:26:09;;;;;;;7.97;3.70;;;;;;;;;;5056386;28;20028;-72
2022/01/09 03:28:35;;;;;;;7.22;4.05;;;;;;;;;;5058080;28;20052;-73
2022/01/09 03:31:01;;;;;;;6.32;4.13;;;;;;;;;;5073963;28;20036;-73
2022/01/09 03:33:26;;;;;;;9.50;3.90;;;;;;;;;;5073809;28;20344;-73
2022/01/09 03:35:52;;;;;;;6.15;4.28;;;;;;;;;;5074320;28;20028;-72
2022/01/09 03:38:18;;;;;;;9.30;4.47;;;;;;;;;;5056147;28;20070;-73
2022/01/09 03:40:44;;;;;;;7.93;4.65;;;;;;;;;;5074186;28;20129;-72
2022/01/09 03:43:10;;;;;;;11.85;4.63;;;;;;;;;;5073515;28;20111;-73
2022/01/09 03:45:36;;;;;;;7.97;4.53;;;;;;;;;;5056030;28;20029;-73
2022/01/09 03:48:02;;;;;;;6.75;4.05;;;;;;;;;;5073746;28;20063;-72
2022/01/09 03:50:28;;;;;;;9.77;4.40;;;;;;;;;;5055162;28;20032;-73
2022/01/09 03:52:54;;;;;;;7.18;4.00;;;;;;;;;;5073386;28;20104;-73
2022/01/09 03:55:22;;;;;;;8.10;4.22;;;;;;;;;;5052322;28;20482;-75
2022/01/09 03:57:49;;;;;;;7.65;4.50;;;;;;;;;;5067552;28;20043;-74
2022/01/09 04:00:16;;;;;;;8.25;4.25;;;;;;;;;;5055647;28;20398;-74
2022/01/09 04:02:42;;;;;;;8.63;3.60;;;;;;;;;;5055635;28;20397;-74
2022/01/09 04:05:09;;;;;;;7.22;5.05;;;;;;;;;;5055522;28;20034;-74
2022/01/09 04:07:35;;;;;;;6.95;3.85;;;;;;;;;;5055645;28;20032;-74
2022/01/09 04:10:02;;;;;;;7.70;3.80;;;;;;;;;;5073842;28;20040;-74
2022/01/09 04:12:36;;;;;;;5.20;3.78;;;;;;;;;;5073224;28;20418;-75
2022/01/09 04:15:03;;;;;;;7.15;4.05;;;;;;;;;;5073564;28;20539;-75
2022/01/09 04:17:42;;;;;;;6.47;3.55;;;;;;;;;;5055399;28;20135;-75
2022/01/09 04:20:09;;;;;;;8.68;3.38;;;;;;;;;;5055649;28;20032;-74
2022/01/09 04:22:35;;;;;;;7.15;3.78;;;;;;;;;;5056795;28;20028;-75
2022/01/09 04:25:01;;;;;;;6.50;4.05;;;;;;;;;;5073825;28;20413;-75
2022/01/09 04:27:27;;;;;;;6.68;4.10;;;;;;;;;;5073062;28;20033;-75
2022/01/09 04:29:53;;;;;;;6.93;3.72;;;;;;;;;;5073288;28;20788;-73
2022/01/09 04:32:19;;;;;;;8.13;4.25;;;;;;;;;;5055209;28;20032;-75
2022/01/09 04:34:45;;;;;;;7.68;3.92;;;;;;;;;;5072791;28;20025;-74
2022/01/09 04:37:11;;;;;;;9.35;4.38;;;;;;;;;;5073089;28;20021;-73
2022/01/09 04:39:37;;;;;;;9.27;4.88;;;;;;;;;;5073484;28;20452;-73
2022/01/09 04:42:03;;;;;;;7.95;4.45;;;;;;;;;;5072900;28;20079;-73
2022/01/09 04:44:29;;;;;;;9.35;4.38;;;;;;;;;;5072897;28;20024;-74
2022/01/09 04:47:00;;;;;;;9.43;4.40;;;;;;;;;;5073541;28;20150;-73
2022/01/09 04:49:34;;;;;;;8.27;4.25;;;;;;;;;;5073772;28;20498;-74
2022/01/09 04:52:01;;;;;;;7.13;4.65;;;;;;;;;;5055434;28;20029;-73
2022/01/09 04:54:26;;;;;;;9.73;3.97;;;;;;;;;;5073270;28;20017;-74
2022/01/09 04:56:52;;;;;;;9.00;4.50;;;;;;;;;;5076111;28;20393;-75
2022/01/09 04:59:18;;;;;;;9.73;4.85;;;;;;;;;;5075436;28;20476;-74
2022/01/09 05:01:44;;;;;;;9.32;4.20;;;;;;;;;;5057043;28;20029;-74
2022/01/09 05:04:10;;;;;;;11.82;4.75;;;;;;;;;;5073340;28;20028;-74
2022/01/09 05:06:37;;;;;;;7.85;4.40;;;;;;;;;;5073333;28;20100;-73
2022/01/09 05:09:03;;;;;;;6.22;3.70;;;;;;;;;;5073112;28;20111;-74
2022/01/09 05:11:29;;;;;;;6.47;4.03;;;;;;;;;;5073441;28;20032;-74
2022/01/09 05:13:55;;;;;;;7.32;4.20;;;;;;;;;;5073385;28;20391;-74
2022/01/09 05:16:21;;;;;;;8.55;4.25;;;;;;;;;;5074087;28;20029;-74
2022/01/09 05:18:58;;;;;;;7.68;4.22;;;;;;;;;;5056458;28;20016;-74
2022/01/09 05:24:05;;;;;;;11.00;4.57;;;;;;;;;;5049667;28;20049;-68
2022/01/09 05:26:31;;;;;;;7.50;4.20;;;;;;;;;;5046987;28;20083;-70
2022/01/09 05:28:57;;;;;;;8.30;4.65;;;;;;;;;;5051815;28;20029;-71
2022/01/09 05:31:23;;;;;;;6.95;4.43;;;;;;;;;;5051901;28;20032;-68
2022/01/09 05:33:49;;;;;;;8.13;4.50;;;;;;;;;;5010906;28;20570;-69
2022/01/09 05:36:15;;;;;;;6.25;3.70;;;;;;;;;;5015367;28;20053;-70
2022/01/09 05:38:41;;;;;;;10.00;4.07;;;;;;;;;;5031830;28;20022;-69
2022/01/09 05:41:07;;;;;;;6.53;4.18;;;;;;;;;;5023874;28;20030;-69
2022/01/09 05:43:33;;;;;;;7.97;4.68;;;;;;;;;;5023201;28;20037;-70
2022/01/09 05:45:59;;;;;;;6.50;4.47;;;;;;;;;;5017082;28;20034;-70
2022/01/09 05:48:25;;;;;;;8.85;4.72;;;;;;;;;;5028227;28;20033;-70
2022/01/09 05:50:51;;;;;;;8.57;4.47;;;;;;;;;;5031978;28;20040;-68
2022/01/09 05:53:17;;;;;;;11.10;4.82;;;;;;;;;;5022029;28;20022;-70
2022/01/09 05:55:43;;;;;;;10.75;4.72;;;;;;;;;;5024793;28;20075;-70
2022/01/09 05:58:09;;;;;;;7.28;4.28;;;;;;;;;;5031782;28;20036;-71
2022/01/09 06:00:35;;;;;;;7.97;4.95;;;;;;;;;;5030459;28;20415;-70
2022/01/09 06:03:01;;;;;;;7.45;4.70;;;;;;;;;;5031367;28;20033;-70
2022/01/09 06:05:27;;;;;;;8.50;4.55;;;;;;;;;;5020711;28;20018;-67
2022/01/09 06:07:53;;;;;;;5.65;4.25;;;;;;;;;;5026418;28;20026;-69
2022/01/09 06:10:19;;;;;;;9.18;4.25;;;;;;;;;;5015576;28;20033;-67
2022/01/09 06:12:45;;;;;;;7.63;4.68;;;;;;;;;;5026466;28;20488;-68
2022/01/09 06:15:11;;;;;;;12.65;4.85;;;;;;;;;;5019917;28;20047;-69
2022/01/09 06:17:37;;;;;;;9.05;4.70;;;;;;;;;;5019650;28;20026;-69
2022/01/09 06:20:04;;;;;;;9.68;5.22;;;;;;;;;;5022610;28;20506;-68
2022/01/09 06:22:30;;;;;;;8.10;5.25;;;;;;;;;;5045207;28;20044;-70
2022/01/09 06:24:56;;;;;;;7.63;4.28;;;;;;;;;;5026498;28;20408;-71
2022/01/09 06:27:22;;;;;;;7.95;4.00;;;;;;;;;;5021265;28;20071;-68
2022/01/09 06:29:48;;;;;;;10.43;5.25;;;;;;;;;;5031411;28;20579;-70
2022/01/09 06:32:14;;;;;;;6.70;4.50;;;;;;;;;;5030481;28;20061;-71
2022/01/09 06:34:41;;;;;;;8.82;4.82;;;;;;;;;;5028552;28;20029;-73
2022/01/09 06:37:07;;;;;;;8.80;4.68;;;;;;;;;;5031312;28;20025;-72
2022/01/09 06:39:33;;;;;;;7.97;4.53;;;;;;;;;;5019757;28;20038;-71
2022/01/09 06:41:59;;;;;;;9.82;4.60;;;;;;;;;;5022022;28;20138;-69
2022/01/09 06:44:25;;;;;;;9.80;4.90;;;;;;;;;;5043957;28;20035;-71
2022/01/09 06:46:51;;;;;;;8.00;4.90;;;;;;;;;;5025916;28;20117;-71
2022/01/09 06:49:17;;;;;;;9.00;4.32;;;;;;;;;;5020864;28;20040;-72
2022/01/09 06:51:43;;;;;;;7.15;4.38;;;;;;;;;;5018341;28;20030;-71
2022/01/09 06:54:09;;;;;;;9.77;4.85;;;;;;;;;;5027444;28;20492;-73
2022/01/09 06:56:35;;;;;;;7.38;4.80;;;;;;;;;;5030661;28;20049;-71
2022/01/09 06:59:01;;;;;;;9.07;4.70;;;;;;;;;;5031156;28;20026;-69
2022/01/09 07:01:27;;;;;;;12.02;5.55;;;;;;;;;;5020270;28;20034;-71
2022/01/09 07:03:53;;;;;;;7.88;4.05;;;;;;;;;;5024762;28;20108;-72
2022/01/09 07:06:19;;;;;;;9.18;4.88;;;;;;;;;;5014494;28;20377;-69
2022/01/09 07:08:45;;;;;;;7.63;4.75;;;;;;;;;;5026059;28;20033;-70
2022/01/09 07:11:11;;;;;;;8.40;4.80;;;;;;;;;;5019408;28;20112;-72
2022/01/09 07:13:37;;;;;;;8.35;4.53;;;;;;;;;;5017381;28;20037;-69
2022/01/09 07:16:03;;;;;;;7.28;4.57;;;;;;;;;;5026559;28;20151;-70
2022/01/09 07:18:29;;;;;;;8.77;4.70;;;;;;;;;;5013209;28;20037;-67
2022/01/09 07:20:55;;;;;;;7.43;4.63;;;;;;;;;;5024810;28;20022;-71
2022/01/09 07:23:21;;;;;;;5.85;3.97;;;;;;;;;;5020313;28;20055;-71
2022/01/09 07:25:47;;;;;;;7.97;4.35;;;;;;;;;;5017839;28;20033;-69
2022/01/09 07:28:12;;;;;;;6.20;4.38;;;;;;;;;;5022000;28;20499;-71
2022/01/09 07:30:39;;;;;;;8.85;4.50;;;;;;;;;;5034280;28;20093;-72
2022/01/09 07:33:06;;;;;;;9.02;4.72;;;;;;;;;;5030608;28;20423;-68
2022/01/09 07:35:32;;;;;;;5.72;3.95;;;;;;;;;;5023257;28;20026;-70
2022/01/09 07:37:58;;;;;;;6.55;4.03;;;;;;;;;;5030573;28;20029;-71
2022/01/09 07:40:24;;;;;;;9.10;4.22;;;;;;;;;;5032958;28;20029;-69
2022/01/09 07:42:50;;;;;;;7.60;4.30;;;;;;;;;;5033500;28;20546;-70
2022/01/09 07:45:19;;;;;;;6.05;3.72;;;;;;;;;;5034079;28;20029;-67
2022/01/09 07:47:45;;;;;;;6.38;3.92;;;;;;;;;;5029471;28;20037;-70
2022/01/09 07:50:11;;;;;;;344.65;148.88;;;;;;;;;;5042553;28;20513;-71
2022/01/09 07:52:38;;;;;;;9.57;5.75;;;;;;;;;;5028009;28;20025;-73
2022/01/09 07:55:05;;;;;;;45.83;16.52;;;;;;;;;;5019864;28;20063;-69
2022/01/09 07:57:31;;;;;;;8.82;3.92;;;;;;;;;;5020531;28;20022;-71
2022/01/09 07:59:58;;;;;;;7.18;3.78;;;;;;;;;;5022346;28;20705;-70
2022/01/09 08:02:24;;;;;;;8.88;5.60;;;;;;;;;;5043682;28;20087;-70
2022/01/09 08:04:50;;;;;;;7.57;3.88;;;;;;;;;;5033081;28;20032;-69
2022/01/09 08:07:17;;;;;;;6.45;3.45;;;;;;;;;;5024082;28;20380;-70
2022/01/09 08:09:45;;;;;;;7.95;3.78;;;;;;;;;;5025252;28;20061;-69
2022/01/09 08:12:14;;;;;;;7.63;4.45;;;;;;;;;;5016879;28;20435;-67
2022/01/09 08:14:40;;;;;;;7.53;3.63;;;;;;;;;;5032418;28;20503;-71
2022/01/09 08:17:06;;;;;;;6.47;3.67;;;;;;;;;;5031845;28;20033;-71
2022/01/09 08:19:32;;;;;;;5.07;3.90;;;;;;;;;;5020569;28;20029;-71
2022/01/09 08:22:01;;;;;;;6.18;4.22;;;;;;;;;;5026440;28;20040;-71
2022/01/09 08:24:26;;;;;;;6.13;4.18;;;;;;;;;;5015223;28;20030;-71
2022/01/09 08:26:52;;;;;;;6.85;4.05;;;;;;;;;;5025421;28;20356;-68
2022/01/09 08:29:18;;;;;;;8.50;4.28;;;;;;;;;;5029201;28;20033;-70
2022/01/09 08:31:44;;;;;;;7.18;4.53;;;;;;;;;;5031409;28;20060;-71
2022/01/09 08:34:10;;;;;;;6.97;4.28;;;;;;;;;;5029569;28;20025;-69
2022/01/09 08:36:36;;;;;;;7.18;4.18;;;;;;;;;;5044261;28;20018;-70
2022/01/09 08:39:04;;;;;;;5.05;3.55;;;;;;;;;;5020510;28;20029;-71
2022/01/09 08:41:30;;;;;;;5.20;3.40;;;;;;;;;;5037215;28;20036;-71
2022/01/09 08:43:56;;;;;;;6.80;4.43;;;;;;;;;;5021012;28;20037;-71
2022/01/09 08:46:22;;;;;;;6.55;3.80;;;;;;;;;;5030808;28;20026;-69
2022/01/09 08:48:49;;;;;;;5.20;3.67;;;;;;;;;;5027444;28;20022;-71
2022/01/09 08:51:15;;;;;;;5.78;3.35;;;;;;;;;;5021633;28;20017;-72
2022/01/09 08:53:42;;;;;;;4.63;3.40;;;;;;;;;;5019914;28;20050;-71
2022/01/09 08:56:11;;;;;;;5.93;4.03;;;;;;;;;;5029372;28;20052;-74
2022/01/09 08:58:37;;;;;;;6.13;3.63;;;;;;;;;;5027438;28;20113;-68
2022/01/09 09:01:03;;;;;;;4.95;3.28;;;;;;;;;;5020144;28;20033;-70
2022/01/09 09:03:29;;;;;;;6.80;3.72;;;;;;;;;;5021308;28;20087;-73
2022/01/09 09:05:55;;;;;;;7.00;3.83;;;;;;;;;;5027001;28;20044;-73
2022/01/09 09:08:21;;;;;;;7.40;3.35;;;;;;;;;;5015844;28;20041;-75
2022/01/09 09:10:47;;;;;;;4.95;3.33;;;;;;;;;;5027178;28;20052;-76
2022/01/09 09:13:13;;;;;;;4.60;3.00;;;;;;;;;;5016289;28;20030;-78
2022/01/09 09:15:42;;;;;;;5.53;2.97;;;;;;;;;;5024763;28;20461;-77
2022/01/09 09:18:08;;;;;;;12.40;4.57;;;;;;;;;;5032363;28;20033;-73
2022/01/09 09:20:34;;;;;;;9.40;5.45;;;;;;;;;;5032058;28;20025;-75
2022/01/09 09:23:00;;;;;;;4.20;3.17;;;;;;;;;;5040163;28;20554;-74
2022/01/09 09:25:26;;;;;;;6.18;3.67;;;;;;;;;;5022635;28;20091;-75
2022/01/09 09:27:52;;;;;;;5.18;3.85;;;;;;;;;;5036935;28;20172;-74
2022/01/09 09:30:18;;;;;;;6.13;3.90;;;;;;;;;;5032436;28;20116;-73
2022/01/09 09:32:44;;;;;;;6.22;3.88;;;;;;;;;;5029014;28;20029;-73
2022/01/09 09:35:11;;;;;;;19.80;10.93;;;;;;;;;;5035782;28;20025;-73
2022/01/09 09:37:37;;;;;;;6.10;3.30;;;;;;;;;;5047559;28;20211;-74
2022/01/09 09:40:03;;;;;;;6.38;3.20;;;;;;;;;;5030381;28;20026;-75
2022/01/09 09:42:29;;;;;;;4.90;3.42;;;;;;;;;;5026455;28;20101;-72
2022/01/09 09:45:00;;;;;;;6.22;3.88;;;;;;;;;;5025516;28;20149;-74
2022/01/09 09:47:26;;;;;;;;;;;;;;;;;;5025916;28;20439;-76
2022/01/09 09:49:52;;;;;;;5.95;4.00;;;;;;;;;;5030640;28;19905;-77
2022/01/09 09:52:19;;;;;;;5.13;3.50;;;;;;;;;;5030336;28;20048;-75
2022/01/09 09:54:46;;;;;;;6.20;3.58;;;;;;;;;;5026826;28;20025;-77
2022/01/09 09:57:17;;;;;;;6.47;3.30;;;;;;;;;;5020464;28;20029;-75
2022/01/09 09:59:43;;;;;;;4.55;3.45;;;;;;;;;;5030854;28;20021;-75
2022/01/09 10:02:10;;;;;;;5.85;3.90;;;;;;;;;;5033485;28;20036;-74
2022/01/09 10:04:36;;;;;;;6.63;3.80;;;;;;;;;;5030706;28;20031;-72
2022/01/09 10:07:02;;;;;;;5.00;3.55;;;;;;;;;;5031891;28;20475;-74
2022/01/09 10:09:29;;;;;;;5.20;3.83;;;;;;;;;;5019733;28;20057;-74
2022/01/09 10:11:55;;;;;;;5.38;4.07;;;;;;;;;;5012366;28;20497;-74
2022/01/09 10:14:25;;;;;;;4.88;3.90;;;;;;;;;;5026310;28;20057;-71
2022/01/09 10:17:10;;;;;;;5.85;3.75;;;;;;;;;;5031406;28;20028;-73
2022/01/09 10:19:42;;;;;;;6.65;4.32;;;;;;;;;;5019099;28;20105;-73
2022/01/09 10:22:41;;;;;;;6.10;3.83;;;;;;;;;;5027606;28;20029;-72
2022/01/09 10:25:27;;;;;;;6.00;3.88;;;;;;;;;;4975213;28;20487;-72
2022/01/09 10:28:09;;;;;;;5.47;3.80;;;;;;;;;;5028984;28;20041;-70
2022/01/09 10:30:38;;;;;;;5.72;4.20;;;;;;;;;;5014898;28;20029;-73
2022/01/09 10:33:07;;;;;;;7.65;4.63;;;;;;;;;;5026429;28;20026;-74
2022/01/09 10:35:34;;;;;;;6.30;4.30;;;;;;;;;;5029727;28;20056;-70
2022/01/09 10:38:07;;;;;;;5.40;4.18;;;;;;;;;;5014507;28;20052;-71
2022/01/09 10:40:35;;;;;;;6.40;4.57;;;;;;;;;;5026327;28;20018;-71
2022/01/09 10:43:08;;;;;;;7.15;3.65;;;;;;;;;;5018742;28;20434;-71
2022/01/09 10:45:36;;;;;;;6.43;4.50;;;;;;;;;;5023905;28;20026;-71
2022/01/09 10:48:10;;;;;;;8.50;4.75;;;;;;;;;;5031001;28;20087;-73
2022/01/09 10:50:38;;;;;;;9.13;4.72;;;;;;;;;;5031137;28;20018;-71
2022/01/09 10:53:17;;;;;;;6.45;4.10;;;;;;;;;;5030698;28;20495;-70
2022/01/09 10:55:44;;;;;;;7.93;4.60;;;;;;;;;;5016970;28;20022;-73
2022/01/09 10:58:20;;;;;;;5.40;4.40;;;;;;;;;;5029384;28;20480;-72
2022/01/09 11:00:47;;;;;;;6.47;4.35;;;;;;;;;;5027938;28;20443;-73
2022/01/09 11:03:13;;;;;;;5.40;3.97;;;;;;;;;;5028908;28;20033;-70
2022/01/09 11:05:39;;;;;;;7.65;4.20;;;;;;;;;;5016527;28;20091;-74
2022/01/09 11:08:06;;;;;;;6.15;3.63;;;;;;;;;;5034613;28;20025;-72
2022/01/09 11:10:33;;;;;;;6.55;4.57;;;;;;;;;;5034607;28;20060;-73
2022/01/09 11:13:02;;;;;;;4.50;3.25;;;;;;;;;;5034324;28;20025;-74
2022/01/09 11:15:29;;;;;;;5.57;4.13;;;;;;;;;;5030008;28;20045;-73
2022/01/09 11:17:58;;;;;;;8.27;4.32;;;;;;;;;;5039050;28;20028;-72
2022/01/09 11:20:24;;;;;;;6.05;4.13;;;;;;;;;;5034544;28;20018;-75
2022/01/09 11:22:50;;;;;;;7.78;3.67;;;;;;;;;;5072768;22;20184;-73
2022/01/09 11:25:36;;;;;;;8.30;4.40;;;;;;;;;;5054389;28;20036;-73
2022/01/09 11:28:05;;;;;;;5.45;4.20;;;;;;;;;;5051892;28;20056;-74
2022/01/09 11:30:35;;;;;;;8.73;5.18;;;;;;;;;;5054449;28;20032;-73
2022/01/09 11:33:00;;;;;;;5.28;4.18;;;;;;;;;;5054450;28;20390;-72
2022/01/09 11:35:35;;;;;;;7.50;4.53;;;;;;;;;;5054946;28;20092;-73
2022/01/09 11:38:20;;;;;;;6.15;4.63;;;;;;;;;;5054899;28;20090;-71
2022/01/09 11:40:46;;;;;;;5.95;4.63;;;;;;;;;;5039747;28;20013;-73
2022/01/09 11:43:14;;;;;;;6.65;4.78;;;;;;;;;;5054350;28;20021;-74
2022/01/09 11:45:58;;;;;;;10.65;5.00;;;;;;;;;;5054916;28;20021;-73
2022/01/09 11:48:42;;;;;;;6.65;4.45;;;;;;;;;;5054639;28;20067;-72
2022/01/09 11:51:09;;;;;;;8.15;5.05;;;;;;;;;;5054559;28;20479;-73
2022/01/09 11:53:53;;;;;;;6.68;4.38;;;;;;;;;;5054245;28;20020;-72
2022/01/09 11:56:51;;;;;;;8.00;4.80;;;;;;;;;;5052719;28;20433;-73
2022/01/09 11:59:29;;;;;;;8.15;6.25;;;;;;;;;;4999620;28;20068;-74
2022/01/09 12:01:57;;;;;;;8.68;5.43;;;;;;;;;;5039733;28;20401;-74
2022/01/09 12:04:33;;;;;;;7.20;4.63;;;;;;;;;;5054010;28;20497;-74
2022/01/09 12:06:59;;;;;;;5.75;4.47;;;;;;;;;;5053991;28;20025;-72
2022/01/09 12:09:35;;;;;;;7.90;4.75;;;;;;;;;;5054373;28;20029;-74
2022/01/09 12:12:04;;;;;;;7.45;5.05;;;;;;;;;;5054157;28;20090;-72
2022/01/09 12:14:45;;;;;;;6.78;4.70;;;;;;;;;;5049186;28;20483;-71
2022/01/09 12:17:23;;;;;;;;;;;;;;;;;;;;;
2022/01/09 12:19:55;;;;;;;6.05;4.40;;;;;;;;;;5054149;28;20040;-75
2022/01/09 12:22:40;;;;;;;7.20;4.78;;;;;;;;;;5055752;28;20116;-76
2022/01/09 12:25:24;;;;;;;6.30;4.35;;;;;;;;;;5061713;28;20035;-73
2022/01/09 12:27:54;;;;;;;5.60;4.32;;;;;;;;;;5060430;28;20021;-74
2022/01/09 12:30:33;;;;;;;6.45;4.15;;;;;;;;;;5037254;28;20025;-74
2022/01/09 12:33:00;;;;;;;6.57;4.82;;;;;;;;;;5038092;28;20024;-74
2022/01/09 12:35:26;;;;;;;6.85;4.57;;;;;;;;;;5049713;28;20024;-75
2022/01/09 12:37:53;;;;;;;7.40;5.10;;;;;;;;;;5044637;28;20017;-74
2022/01/09 12:40:20;;;;;;;6.45;4.75;;;;;;;;;;5051791;28;20498;-74
2022/01/09 12:42:47;;;;;;;7.60;5.53;;;;;;;;;;5040066;28;20028;-74
2022/01/09 12:45:18;;;;;;;6.80;4.85;;;;;;;;;;5064260;28;20088;-74
2022/01/09 12:47:44;;;;;;;7.80;4.88;;;;;;;;;;5066533;28;20043;-74
2022/01/09 12:50:10;;;;;;;5.45;4.22;;;;;;;;;;5055335;28;20029;-75
2022/01/09 12:52:36;;;;;;;7.72;5.40;;;;;;;;;;5053580;28;20498;-74
2022/01/09 12:55:05;;;;;;;6.38;4.90;;;;;;;;;;5044381;28;20025;-75
2022/01/09 12:57:31;;;;;;;8.35;5.63;;;;;;;;;;5057642;28;20500;-75
2022/01/09 12:59:57;;;;;;;6.93;5.07;;;;;;;;;;5068838;28;20033;-72
2022/01/09 13:02:23;;;;;;;8.45;4.25;;;;;;;;;;5056680;28;20033;-74
2022/01/09 13:04:49;;;;;;;6.43;4.63;;;;;;;;;;5067820;28;20108;-73
2022/01/09 13:07:16;;;;;;;6.15;4.15;;;;;;;;;;5052898;28;20060;-72
2022/01/09 13:09:42;;;;;;;5.72;3.15;;;;;;;;;;5065827;28;20021;-74
2022/01/09 13:12:08;;;;;;;4.75;3.03;;;;;;;;;;5056041;28;20391;-73
2022/01/09 13:14:43;;;;;;;5.65;4.05;;;;;;;;;;5033125;28;20025;-73
2022/01/09 13:17:09;;;;;;;4.32;3.17;;;;;;;;;;5049347;28;20035;-71
2022/01/09 13:19:35;;;;;;;5.10;3.10;;;;;;;;;;5054739;28;20289;-73
2022/01/09 13:22:05;;;;;;;5.30;3.20;;;;;;;;;;5072106;28;20032;-74
2022/01/09 13:24:31;;;;;;;5.50;2.90;;;;;;;;;;5036833;28;20074;-74
2022/01/09 13:26:58;;;;;;;7.22;2.85;;;;;;;;;;5066714;28;20431;-73
2022/01/09 13:29:31;;;;;;;3.28;2.50;;;;;;;;;;5063294;28;20037;-73
2022/01/09 13:31:58;;;;;;;6.05;3.35;;;;;;;;;;5068903;28;20020;-74
2022/01/09 13:34:33;;;;;;;5.55;3.15;;;;;;;;;;5057110;28;20029;-73
2022/01/09 13:37:00;;;;;;;5.07;3.38;;;;;;;;;;5052594;28;20040;-75
2022/01/09 13:39:28;;;;;;;3.15;2.17;;;;;;;;;;5034532;28;20501;-74
2022/01/09 13:42:00;;;;;;;4.03;2.60;;;;;;;;;;5066445;28;20032;-73
2022/01/09 13:44:33;;;;;;;4.38;2.78;;;;;;;;;;5035467;28;20135;-75
2022/01/09 13:47:04;;;;;;;4.50;3.08;;;;;;;;;;5059282;28;20032;-74
2022/01/09 13:49:31;;;;;;;4.78;3.47;;;;;;;;;;5041975;28;20028;-74
2022/01/09 13:51:57;;;;;;;4.95;3.13;;;;;;;;;;5055987;28;20017;-74
2022/01/09 13:54:32;;;;;;;4.95;3.08;;;;;;;;;;5060903;28;20373;-73
2022/01/09 13:57:03;;;;;;;4.53;2.67;;;;;;;;;;5066003;28;20069;-74
2022/01/09 13:59:29;;;;;;;;;;;;;;;;;;5043006;28;20079;-74
2022/01/09 14:01:55;;;;;;;7.88;4.00;;;;;;;;;;5052406;28;19944;-73
2022/01/09 14:04:21;;;;;;;4.43;3.13;;;;;;;;;;5059240;28;20025;-73
2022/01/09 14:07:01;;;;;;;6.25;4.40;;;;;;;;;;5039488;28;20017;-74
2022/01/09 14:09:34;;;;;;;5.57;3.30;;;;;;;;;;5064933;28;20102;-75
2022/01/09 14:12:02;;;;;;;4.18;3.15;;;;;;;;;;5056365;28;20033;-74
2022/01/09 14:14:29;;;;;;;5.15;3.40;;;;;;;;;;5054335;28;20501;-73
2022/01/09 14:16:55;;;;;;;5.30;4.00;;;;;;;;;;5072052;28;20029;-74
2022/01/09 14:19:21;;;;;;;9.05;4.93;;;;;;;;;;5062309;28;20031;-74
2022/01/09 14:21:51;;;;;;;7.13;3.58;;;;;;;;;;5052213;28;20104;-73
2022/01/09 14:24:17;;;;;;;7.05;4.20;;;;;;;;;;5048010;28;20029;-73
2022/01/09 14:26:54;;;;;;;6.13;3.60;;;;;;;;;;5035394;28;20082;-72
2022/01/09 14:29:33;;;;;;;6.78;4.20;;;;;;;;;;5054725;28;20508;-71
2022/01/09 14:31:59;;;;;;;6.43;3.75;;;;;;;;;;5055723;28;20438;-72
2022/01/09 14:34:25;;;;;;;3.85;2.67;;;;;;;;;;5047766;28;20017;-73
2022/01/09 14:36:51;;;;;;;5.13;2.70;;;;;;;;;;5062283;28;20093;-75
2022/01/09 14:39:17;;;;;;;25.02;15.27;;;;;;;;;;5070520;28;20044;-75
2022/01/09 14:41:43;;;;;;;5.05;3.05;;;;;;;;;;5054823;28;20029;-71
2022/01/09 14:44:09;;;;;;;4.78;3.30;;;;;;;;;;5043139;28;20434;-73
2022/01/09 14:46:36;;;;;;;8.15;4.85;;;;;;;;;;5058344;28;20025;-72
2022/01/09 14:49:02;;;;;;;12.80;7.60;;;;;;;;;;5058169;28;20037;-73
2022/01/09 14:51:28;;;;;;;6.20;3.53;;;;;;;;;;5057705;28;20025;-72
2022/01/09 14:53:55;;;;;;;3.83;2.60;;;;;;;;;;5057450;28;20052;-71